createdAt,value
2017-11-08T00:01:53.239Z,18.00
2017-11-08T00:04:21.080Z,18.00
2017-11-08T00:06:48.896Z,17.90
2017-11-08T00:09:17.744Z,17.90
2017-11-08T00:11:46.430Z,17.90
2017-11-08T00:14:15.233Z,17.90
2017-11-08T00:16:43.023Z,17.90
2017-11-08T00:19:11.002Z,17.90
2017-11-08T00:21:44.476Z,17.90
2017-11-08T00:24:14.350Z,17.90
2017-11-08T00:26:42.174Z,17.80
2017-11-08T00:29:09.957Z,17.80
2017-11-08T00:31:37.798Z,17.80
2017-11-08T00:34:05.580Z,17.80
2017-11-08T00:36:33.392Z,17.80
2017-11-08T00:39:02.821Z,17.80
2017-11-08T00:41:30.912Z,17.80
2017-11-08T00:43:58.720Z,17.80
2017-11-08T00:46:27.504Z,17.80
2017-11-08T00:48:58.780Z,17.70
2017-11-08T00:51:26.594Z,17.80
2017-11-08T00:53:54.400Z,17.70
2017-11-08T00:56:23.223Z,17.70
2017-11-08T00:58:51.113Z,17.70
2017-11-08T01:01:18.896Z,17.70
2017-11-08T01:03:46.755Z,17.70
2017-11-08T01:06:14.903Z,17.70
2017-11-08T01:08:42.739Z,17.70
2017-11-08T01:11:10.616Z,17.70
2017-11-08T01:13:38.492Z,17.70
2017-11-08T01:16:06.301Z,17.80
2017-11-08T01:18:34.198Z,17.70
2017-11-08T01:21:02.054Z,17.70
2017-11-08T01:23:30.643Z,17.70
2017-11-08T01:25:58.471Z,17.70
2017-11-08T01:28:26.283Z,17.70
2017-11-08T01:30:54.112Z,17.70
2017-11-08T01:33:21.898Z,17.70
2017-11-08T01:35:51.243Z,17.70
2017-11-08T01:38:21.927Z,17.70
2017-11-08T01:40:51.396Z,17.60
2017-11-08T01:43:19.216Z,17.60
2017-11-08T01:45:47.245Z,17.60
2017-11-08T01:48:16.893Z,17.60
2017-11-08T01:50:51.428Z,17.60
2017-11-08T01:53:19.337Z,17.60
2017-11-08T01:55:47.231Z,17.60
2017-11-08T01:58:15.902Z,17.50
2017-11-08T02:00:43.756Z,17.50
2017-11-08T02:03:12.979Z,17.50
2017-11-08T02:05:41.936Z,17.40
2017-11-08T02:08:09.839Z,17.40
2017-11-08T02:10:38.420Z,17.40
2017-11-08T02:13:07.390Z,17.40
2017-11-08T02:15:35.352Z,17.30
2017-11-08T02:18:07.353Z,17.30
2017-11-08T02:20:35.949Z,17.30
2017-11-08T02:23:05.243Z,17.30
2017-11-08T02:25:33.145Z,17.30
2017-11-08T02:28:01.886Z,17.30
2017-11-08T02:30:30.521Z,17.20
2017-11-08T02:33:00.661Z,17.20
2017-11-08T02:35:28.577Z,17.20
2017-11-08T02:37:56.635Z,17.20
2017-11-08T02:40:24.556Z,17.20
2017-11-08T02:42:52.618Z,17.30
2017-11-08T02:45:20.509Z,17.30
2017-11-08T02:47:55.456Z,17.20
2017-11-08T02:50:24.055Z,17.20
2017-11-08T02:52:51.924Z,17.20
2017-11-08T02:55:19.761Z,17.20
2017-11-08T02:57:47.565Z,17.20
2017-11-08T03:00:15.387Z,17.20
2017-11-08T03:02:48.776Z,17.10
2017-11-08T03:05:18.355Z,17.10
2017-11-08T03:07:46.946Z,17.10
2017-11-08T03:10:14.813Z,17.10
2017-11-08T03:12:42.624Z,17.10
2017-11-08T03:15:11.192Z,17.00
2017-11-08T03:17:40.272Z,17.00
2017-11-08T03:20:08.093Z,17.00
2017-11-08T03:22:36.002Z,17.00
2017-11-08T03:25:03.870Z,17.00
2017-11-08T03:27:31.773Z,17.00
2017-11-08T03:29:59.617Z,17.00
2017-11-08T03:32:27.421Z,16.90
2017-11-08T03:34:56.506Z,16.90
2017-11-08T03:37:24.414Z,16.90
2017-11-08T03:39:52.216Z,16.90
2017-11-08T03:42:20.134Z,16.80
2017-11-08T03:44:47.968Z,16.80
2017-11-08T03:47:15.773Z,16.90
2017-11-08T03:49:43.668Z,16.90
2017-11-08T03:52:11.462Z,16.90
2017-11-08T03:54:40.195Z,16.90
2017-11-08T03:57:08.003Z,16.90
2017-11-08T03:59:35.788Z,16.90
2017-11-08T04:02:03.704Z,16.90
2017-11-08T04:04:31.513Z,16.90
2017-11-08T04:06:59.396Z,16.90
2017-11-08T04:09:27.351Z,16.90
2017-11-08T04:11:55.203Z,16.90
2017-11-08T04:14:23.803Z,16.80
2017-11-08T04:16:51.661Z,16.80
2017-11-08T04:19:19.590Z,16.90
2017-11-08T04:21:47.421Z,16.80
2017-11-08T04:24:15.326Z,16.80
2017-11-08T04:26:43.230Z,16.80
2017-11-08T04:29:11.051Z,16.80
2017-11-08T04:31:38.983Z,16.80
2017-11-08T04:34:06.901Z,16.80
2017-11-08T04:36:35.518Z,16.80
2017-11-08T04:39:03.489Z,16.80
2017-11-08T04:41:32.424Z,16.70
2017-11-08T04:44:00.360Z,16.70
2017-11-08T04:46:28.390Z,16.70
2017-11-08T04:48:57.026Z,16.70
2017-11-08T04:51:24.986Z,16.70
2017-11-08T04:53:52.828Z,16.70
2017-11-08T04:56:20.779Z,16.60
2017-11-08T04:58:49.424Z,16.60
2017-11-08T05:01:17.365Z,16.60
2017-11-08T05:03:45.238Z,16.70
2017-11-08T05:06:13.832Z,16.60
2017-11-08T05:08:41.703Z,16.60
2017-11-08T05:11:09.546Z,16.60
2017-11-08T05:13:37.440Z,16.60
2017-11-08T05:16:05.439Z,16.70
2017-11-08T05:18:34.114Z,16.60
2017-11-08T05:21:02.587Z,16.60
2017-11-08T05:23:30.417Z,16.60
2017-11-08T05:25:58.303Z,16.60
2017-11-08T05:28:26.186Z,16.60
2017-11-08T05:30:54.210Z,16.60
2017-11-08T05:33:22.086Z,16.50
2017-11-08T05:35:51.728Z,16.50
2017-11-08T05:38:19.715Z,16.50
2017-11-08T05:40:47.569Z,16.50
2017-11-08T05:43:15.400Z,16.50
2017-11-08T05:45:43.274Z,16.50
2017-11-08T05:48:11.206Z,16.50
2017-11-08T05:50:39.074Z,16.50
2017-11-08T05:53:07.766Z,16.40
2017-11-08T05:55:35.660Z,16.40
2017-11-08T05:58:04.476Z,16.40
2017-11-08T06:00:32.349Z,16.40
2017-11-08T06:03:00.181Z,16.40
2017-11-08T06:05:28.027Z,16.40
2017-11-08T06:07:55.916Z,16.40
2017-11-08T06:10:23.832Z,16.40
2017-11-08T06:12:52.473Z,16.40
2017-11-08T06:15:20.517Z,16.40
2017-11-08T06:17:48.383Z,16.40
2017-11-08T06:20:16.231Z,16.40
2017-11-08T06:22:44.934Z,16.30
2017-11-08T06:25:12.793Z,16.30
2017-11-08T06:27:40.674Z,16.30
2017-11-08T06:30:08.541Z,16.30
2017-11-08T06:32:37.092Z,16.30
2017-11-08T06:35:05.815Z,16.30
2017-11-08T06:37:33.632Z,16.30
2017-11-08T06:40:01.452Z,16.30
2017-11-08T06:42:29.350Z,16.30
2017-11-08T06:45:06.425Z,16.30
2017-11-08T06:47:34.322Z,16.30
2017-11-08T06:50:02.987Z,16.20
2017-11-08T06:52:30.804Z,16.20
2017-11-08T06:54:59.387Z,16.20
2017-11-08T06:57:27.349Z,16.20
2017-11-08T06:59:55.213Z,16.20
2017-11-08T07:02:23.108Z,16.20
2017-11-08T07:04:50.938Z,16.20
2017-11-08T07:07:18.769Z,16.10
2017-11-08T07:09:46.626Z,16.20
2017-11-08T07:12:14.524Z,16.20
2017-11-08T07:14:43.123Z,16.10
2017-11-08T07:17:11.024Z,16.10
2017-11-08T07:19:38.846Z,16.10
2017-11-08T07:22:06.704Z,16.20
2017-11-08T07:24:35.876Z,16.20
2017-11-08T07:27:03.773Z,16.20
2017-11-08T07:29:31.626Z,16.20
2017-11-08T07:32:00.315Z,16.30
2017-11-08T07:34:28.207Z,16.30
2017-11-08T07:36:56.397Z,16.30
2017-11-08T07:39:24.277Z,16.30
2017-11-08T07:41:52.165Z,16.40
2017-11-08T07:44:19.999Z,16.40
2017-11-08T07:46:47.892Z,16.40
2017-11-08T07:49:15.749Z,16.50
2017-11-08T07:51:43.597Z,16.60
2017-11-08T07:54:12.500Z,16.60
2017-11-08T07:56:40.329Z,16.70
2017-11-08T07:59:08.185Z,16.80
2017-11-08T08:01:36.267Z,16.80
2017-11-08T08:04:04.232Z,16.90
2017-11-08T08:06:32.154Z,17.00
2017-11-08T08:09:00.041Z,17.10
2017-11-08T08:11:28.704Z,17.30
2017-11-08T08:13:59.396Z,17.30
2017-11-08T08:16:27.289Z,17.30
2017-11-08T08:18:55.304Z,17.40
2017-11-08T08:21:24.137Z,17.50
2017-11-08T08:23:52.028Z,17.60
2017-11-08T08:26:37.007Z,17.70
2017-11-08T08:29:04.983Z,17.80
2017-11-08T08:31:32.891Z,17.90
2017-11-08T08:34:00.787Z,17.90
2017-11-08T08:36:28.647Z,18.00
2017-11-08T08:38:56.543Z,18.10
2017-11-08T08:41:24.476Z,18.10
2017-11-08T08:43:52.324Z,18.20
2017-11-08T08:46:20.206Z,18.20
2017-11-08T08:48:52.030Z,18.30
2017-11-08T08:51:20.678Z,18.40
2017-11-08T08:53:48.506Z,18.30
2017-11-08T08:56:16.396Z,18.40
2017-11-08T08:58:44.234Z,18.50
2017-11-08T09:01:12.092Z,18.50
2017-11-08T09:03:39.937Z,18.50
2017-11-08T09:06:08.589Z,18.70
2017-11-08T09:08:36.422Z,18.60
2017-11-08T09:11:04.290Z,18.70
2017-11-08T09:13:32.187Z,18.70
2017-11-08T09:16:00.132Z,18.80
2017-11-08T09:18:27.963Z,18.90
2017-11-08T09:20:56.684Z,18.90
2017-11-08T09:23:25.434Z,18.90
2017-11-08T09:25:53.388Z,19.00
2017-11-08T09:28:22.037Z,19.10
2017-11-08T09:30:50.060Z,19.10
2017-11-08T09:33:18.734Z,19.10
2017-11-08T09:35:47.732Z,19.10
2017-11-08T09:38:17.015Z,19.10
2017-11-08T09:40:46.078Z,19.20
2017-11-08T09:43:19.670Z,19.20
2017-11-08T09:45:47.578Z,19.20
2017-11-08T09:48:15.640Z,19.30
2017-11-08T09:50:43.534Z,19.30
2017-11-08T09:53:12.174Z,19.40
2017-11-08T09:55:44.008Z,19.30
2017-11-08T09:58:12.744Z,19.40
2017-11-08T10:00:40.648Z,19.40
2017-11-08T10:03:09.159Z,19.50
2017-11-08T10:05:37.079Z,19.50
2017-11-08T10:08:05.748Z,19.50
2017-11-08T10:10:33.675Z,19.50
2017-11-08T10:13:07.196Z,19.50
2017-11-08T10:15:35.088Z,19.60
2017-11-08T10:18:03.744Z,19.70
2017-11-08T10:20:31.688Z,19.60
2017-11-08T10:23:00.978Z,19.70
2017-11-08T10:25:29.596Z,19.70
2017-11-08T10:27:57.684Z,19.70
2017-11-08T10:30:26.317Z,19.70
2017-11-08T10:32:54.261Z,19.70
2017-11-08T10:35:22.149Z,19.80
2017-11-08T10:37:50.100Z,19.80
2017-11-08T10:40:19.103Z,19.90
2017-11-08T10:42:47.206Z,19.80
2017-11-08T10:45:15.143Z,19.90
2017-11-08T10:47:43.186Z,19.90
2017-11-08T10:50:11.084Z,19.90
2017-11-08T10:52:39.950Z,19.90
2017-11-08T10:55:07.922Z,19.80
2017-11-08T10:57:36.721Z,19.70
2017-11-08T11:00:24.736Z,19.70
2017-11-08T11:03:07.525Z,19.70
2017-11-08T11:05:36.215Z,19.70
2017-11-08T11:08:06.049Z,19.70
2017-11-08T11:10:34.094Z,19.70
2017-11-08T11:13:04.022Z,19.70
2017-11-08T11:15:32.884Z,19.70
2017-11-08T11:18:01.043Z,19.70
2017-11-08T11:20:28.928Z,19.80
2017-11-08T11:22:57.000Z,19.70
2017-11-08T11:25:26.734Z,19.70
2017-11-08T11:27:55.043Z,19.70
2017-11-08T11:30:25.987Z,19.70
2017-11-08T11:32:54.294Z,19.70
2017-11-08T11:35:22.229Z,19.70
2017-11-08T11:37:50.488Z,19.70
2017-11-08T11:40:18.587Z,19.70
2017-11-08T11:42:46.827Z,19.70
2017-11-08T11:45:14.919Z,19.70
2017-11-08T11:47:42.826Z,19.60
2017-11-08T11:50:10.765Z,19.70
2017-11-08T11:52:38.733Z,19.70
2017-11-08T11:55:06.654Z,19.70
2017-11-08T11:57:35.332Z,19.70
2017-11-08T12:00:04.204Z,19.80
2017-11-08T12:02:32.291Z,19.70
2017-11-08T12:05:00.275Z,19.70
2017-11-08T12:07:29.090Z,19.80
2017-11-08T12:09:57.447Z,19.80
2017-11-08T12:12:26.169Z,19.80
2017-11-08T12:14:54.126Z,19.80
2017-11-08T12:17:22.164Z,19.90
2017-11-08T12:19:50.886Z,19.80
2017-11-08T12:22:19.750Z,19.80
2017-11-08T12:24:48.623Z,19.80
2017-11-08T12:27:20.265Z,19.90
2017-11-08T12:29:48.250Z,19.90
2017-11-08T12:32:16.264Z,19.90
2017-11-08T12:34:59.170Z,20.00
2017-11-08T12:37:28.086Z,20.00
2017-11-08T12:39:56.966Z,20.00
2017-11-08T12:42:26.869Z,20.00
2017-11-08T12:44:57.849Z,20.10
2017-11-08T12:47:25.780Z,20.00
2017-11-08T12:49:53.743Z,20.00
2017-11-08T12:52:21.744Z,20.00
2017-11-08T12:54:49.671Z,20.10
2017-11-08T12:57:18.411Z,20.10
2017-11-08T12:59:46.344Z,20.10
2017-11-08T13:02:14.250Z,20.10
2017-11-08T13:04:42.174Z,20.10
2017-11-08T13:07:10.080Z,20.10
2017-11-08T13:09:38.015Z,20.10
2017-11-08T13:12:06.038Z,20.00
2017-11-08T13:14:34.933Z,20.00
2017-11-08T13:17:02.900Z,20.00
2017-11-08T13:19:30.977Z,20.00
2017-11-08T13:21:58.968Z,20.00
2017-11-08T13:24:26.944Z,19.90
2017-11-08T13:26:55.323Z,20.00
2017-11-08T13:29:23.290Z,20.00
2017-11-08T13:31:54.561Z,20.00
2017-11-08T13:34:23.313Z,20.00
2017-11-08T13:36:51.309Z,20.00
2017-11-08T13:39:19.256Z,20.00
2017-11-08T13:41:54.681Z,19.90
2017-11-08T13:44:23.493Z,19.90
2017-11-08T13:46:51.596Z,19.90
2017-11-08T13:49:20.277Z,19.90
2017-11-08T13:51:48.292Z,19.90
2017-11-08T13:54:17.415Z,19.90
2017-11-08T13:56:46.337Z,19.90
2017-11-08T13:59:14.278Z,19.90
2017-11-08T14:01:42.593Z,19.90
2017-11-08T14:04:10.592Z,19.90
2017-11-08T14:06:39.291Z,19.90
2017-11-08T14:09:08.001Z,19.90
2017-11-08T14:11:36.240Z,19.90
2017-11-08T14:14:04.562Z,19.90
2017-11-08T14:16:32.488Z,19.90
2017-11-08T14:19:01.166Z,19.80
2017-11-08T14:21:29.066Z,19.90
2017-11-08T14:23:56.968Z,19.90
2017-11-08T14:26:24.860Z,19.90
2017-11-08T14:28:52.702Z,19.90
2017-11-08T14:31:20.578Z,19.90
2017-11-08T14:33:48.518Z,20.00
2017-11-08T14:36:16.444Z,20.00
2017-11-08T14:38:44.313Z,19.90
2017-11-08T14:41:12.976Z,20.00
2017-11-08T14:43:40.876Z,20.00
2017-11-08T14:46:09.493Z,20.00
2017-11-08T14:48:37.373Z,20.00
2017-11-08T14:51:05.248Z,20.00
2017-11-08T14:53:33.130Z,20.00
2017-11-08T14:56:02.482Z,20.00
2017-11-08T14:58:30.664Z,20.00
2017-11-08T15:01:01.226Z,20.00
2017-11-08T15:03:29.882Z,20.00
2017-11-08T15:05:57.719Z,20.00
2017-11-08T15:08:26.571Z,20.00
2017-11-08T15:10:58.318Z,20.00
2017-11-08T15:13:26.153Z,19.90
2017-11-08T15:15:54.049Z,20.00
2017-11-08T15:18:21.947Z,20.00
2017-11-08T15:20:52.368Z,20.00
2017-11-08T15:23:21.644Z,20.00
2017-11-08T15:25:51.679Z,19.90
2017-11-08T15:28:19.774Z,20.00
2017-11-08T15:30:48.637Z,19.90
2017-11-08T15:33:16.529Z,19.90
2017-11-08T15:35:44.383Z,19.90
2017-11-08T15:38:12.218Z,19.90
2017-11-08T15:40:40.124Z,19.90
2017-11-08T15:43:08.781Z,19.90
2017-11-08T15:45:36.694Z,19.90
2017-11-08T15:48:05.435Z,19.80
2017-11-08T15:50:33.269Z,19.80
2017-11-08T15:53:01.221Z,19.80
2017-11-08T15:55:29.845Z,19.80
2017-11-08T15:57:57.746Z,19.80
2017-11-08T16:00:25.611Z,19.80
2017-11-08T16:02:53.653Z,19.80
2017-11-08T16:05:21.523Z,19.70
2017-11-08T16:07:49.548Z,19.70
2017-11-08T16:10:17.450Z,19.70
2017-11-08T16:12:45.357Z,19.70
2017-11-08T16:15:13.317Z,19.70
2017-11-08T16:17:41.276Z,19.70
2017-11-08T16:20:14.832Z,19.70
2017-11-08T16:22:42.721Z,19.70
2017-11-08T16:25:10.580Z,19.70
2017-11-08T16:27:38.434Z,19.60
2017-11-08T16:30:06.288Z,19.70
2017-11-08T16:32:34.228Z,19.70
2017-11-08T16:35:02.849Z,19.70
2017-11-08T16:37:30.665Z,19.60
2017-11-08T16:39:58.557Z,19.60
2017-11-08T16:42:27.231Z,19.60
2017-11-08T16:44:55.850Z,19.60
2017-11-08T16:47:23.868Z,19.60
2017-11-08T16:49:51.885Z,19.60
2017-11-08T16:52:19.751Z,19.60
2017-11-08T16:54:47.596Z,19.60
2017-11-08T16:57:15.496Z,19.60
2017-11-08T16:59:43.649Z,19.60
2017-11-08T17:02:11.484Z,19.60
2017-11-08T17:04:39.417Z,19.60
2017-11-08T17:07:07.263Z,19.50
2017-11-08T17:09:35.175Z,19.50
2017-11-08T17:12:03.176Z,19.50
2017-11-08T17:14:31.188Z,19.50
2017-11-08T17:16:59.175Z,19.40
2017-11-08T17:19:27.054Z,19.40
2017-11-08T17:21:54.898Z,19.40
2017-11-08T17:24:22.856Z,19.40
2017-11-08T17:26:50.809Z,19.40
2017-11-08T17:29:18.743Z,19.40
2017-11-08T17:31:47.357Z,19.30
2017-11-08T17:34:15.218Z,19.30
2017-11-08T17:36:43.110Z,19.30
2017-11-08T17:39:10.974Z,19.30
2017-11-08T17:41:38.917Z,19.30
2017-11-08T17:44:06.863Z,19.30
2017-11-08T17:46:35.522Z,19.40
2017-11-08T17:49:03.427Z,19.40
2017-11-08T17:51:31.377Z,19.30
2017-11-08T17:54:00.090Z,19.30
2017-11-08T17:56:28.057Z,19.30
2017-11-08T17:58:55.894Z,19.30
2017-11-08T18:01:24.560Z,19.30
2017-11-08T18:03:52.434Z,19.30
2017-11-08T18:06:21.488Z,19.20
2017-11-08T18:08:50.038Z,19.20
2017-11-08T18:11:20.118Z,19.20
2017-11-08T18:13:50.583Z,19.20
2017-11-08T18:16:20.985Z,19.30
2017-11-08T18:18:49.758Z,19.20
2017-11-08T18:21:17.564Z,19.20
2017-11-08T18:23:46.152Z,19.10
2017-11-08T18:26:13.986Z,19.10
2017-11-08T18:28:41.873Z,19.10
2017-11-08T18:31:10.638Z,19.10
2017-11-08T18:33:38.533Z,19.10
2017-11-08T18:36:07.098Z,19.10
2017-11-08T18:38:34.938Z,19.10
2017-11-08T18:41:02.793Z,19.10
2017-11-08T18:43:30.644Z,19.10
2017-11-08T18:45:58.654Z,19.00
2017-11-08T18:48:26.564Z,19.00
2017-11-08T18:50:54.491Z,19.00
2017-11-08T18:53:22.376Z,19.00
2017-11-08T18:55:51.062Z,19.00
2017-11-08T18:58:19.621Z,19.00
2017-11-08T19:00:47.465Z,18.90
2017-11-08T19:03:15.293Z,19.00
2017-11-08T19:05:43.139Z,19.00
2017-11-08T19:08:11.740Z,19.00
2017-11-08T19:10:40.347Z,19.00
2017-11-08T19:13:08.154Z,18.90
2017-11-08T19:15:36.464Z,18.90
2017-11-08T19:18:05.050Z,18.90
2017-11-08T19:20:32.891Z,18.90
2017-11-08T19:23:00.718Z,18.90
2017-11-08T19:25:28.549Z,18.90
2017-11-08T19:27:56.469Z,18.90
2017-11-08T19:30:24.366Z,18.80
2017-11-08T19:32:52.959Z,18.80
2017-11-08T19:35:21.616Z,18.80
2017-11-08T19:37:49.531Z,18.80
2017-11-08T19:40:17.355Z,18.80
2017-11-08T19:42:45.324Z,18.80
2017-11-08T19:45:13.160Z,18.70
2017-11-08T19:47:41.021Z,18.70
2017-11-08T19:50:08.941Z,18.70
2017-11-08T19:52:37.564Z,18.60
2017-11-08T19:55:06.138Z,18.60
2017-11-08T19:57:37.870Z,18.60
2017-11-08T20:00:05.936Z,18.60
2017-11-08T20:02:33.822Z,18.60
2017-11-08T20:05:02.055Z,18.60
2017-11-08T20:07:30.130Z,18.50
2017-11-08T20:09:58.024Z,18.50
2017-11-08T20:12:26.821Z,18.50
2017-11-08T20:14:55.121Z,18.50
2017-11-08T20:17:23.826Z,18.50
2017-11-08T20:19:51.800Z,18.50
2017-11-08T20:22:19.646Z,18.50
2017-11-08T20:24:47.504Z,18.50
2017-11-08T20:27:15.338Z,18.40
2017-11-08T20:29:43.308Z,18.40
2017-11-08T20:32:11.845Z,18.40
2017-11-08T20:34:40.487Z,18.40
2017-11-08T20:37:08.418Z,18.30
2017-11-08T20:39:37.139Z,18.30
2017-11-08T20:42:05.853Z,18.30
2017-11-08T20:44:33.705Z,18.30
2017-11-08T20:47:01.524Z,18.30
2017-11-08T20:49:30.221Z,18.30
2017-11-08T20:51:58.793Z,18.20
2017-11-08T20:54:26.908Z,18.20
2017-11-08T20:56:54.705Z,18.20
2017-11-08T20:59:36.338Z,18.20
2017-11-08T21:02:04.283Z,18.20
2017-11-08T21:07:07.509Z,18.10
2017-11-08T21:09:43.487Z,18.10
2017-11-08T21:12:12.190Z,18.20
2017-11-08T21:14:40.139Z,18.10
2017-11-08T21:17:08.204Z,18.10
2017-11-08T21:19:36.197Z,18.20
2017-11-08T21:22:04.176Z,18.10
2017-11-08T21:24:32.716Z,18.10
2017-11-08T21:27:00.621Z,18.10
2017-11-08T21:29:28.496Z,18.10
2017-11-08T21:31:56.326Z,18.20
2017-11-08T21:34:24.286Z,18.10
2017-11-08T21:36:53.908Z,18.10
2017-11-08T21:39:21.838Z,18.10
2017-11-08T21:41:50.663Z,18.10
2017-11-08T21:44:18.521Z,18.10
2017-11-08T21:46:46.367Z,18.10
2017-11-08T21:49:15.057Z,18.10
2017-11-08T21:51:43.921Z,18.10
2017-11-08T21:54:11.858Z,18.10
2017-11-08T21:56:39.679Z,18.10
2017-11-08T21:59:08.331Z,18.10
2017-11-08T22:01:36.216Z,18.10
2017-11-08T22:04:04.102Z,18.10
2017-11-08T22:06:32.689Z,18.00
2017-11-08T22:09:01.369Z,18.00
2017-11-08T22:11:31.669Z,18.10
2017-11-08T22:13:59.557Z,18.00
2017-11-08T22:16:28.124Z,18.00
2017-11-08T22:18:56.335Z,18.00
2017-11-08T22:21:24.206Z,18.00
2017-11-08T22:23:52.485Z,17.90
2017-11-08T22:26:20.365Z,18.00
2017-11-08T22:28:48.207Z,18.00
2017-11-08T22:31:17.286Z,18.00
2017-11-08T22:33:45.894Z,18.00
2017-11-08T22:36:13.854Z,17.90
2017-11-08T22:38:41.715Z,18.00
2017-11-08T22:41:10.349Z,17.80
2017-11-08T22:43:38.287Z,17.80
2017-11-08T22:46:06.358Z,17.80
2017-11-08T22:48:34.154Z,17.80
2017-11-08T22:51:01.957Z,17.80
2017-11-08T22:53:30.579Z,17.70
2017-11-08T22:55:58.445Z,17.70
2017-11-08T22:58:26.286Z,17.70
2017-11-08T23:00:54.232Z,17.70
2017-11-08T23:03:22.817Z,17.70
2017-11-08T23:05:51.489Z,17.60
2017-11-08T23:08:19.325Z,17.60
2017-11-08T23:10:47.337Z,17.60
2017-11-08T23:13:15.903Z,17.60
2017-11-08T23:15:43.690Z,17.60
2017-11-08T23:18:12.351Z,17.50
2017-11-08T23:20:40.180Z,17.50
2017-11-08T23:23:08.064Z,17.50
2017-11-08T23:25:35.888Z,17.50
2017-11-08T23:28:03.745Z,17.40
2017-11-08T23:30:33.141Z,17.50
2017-11-08T23:33:01.745Z,17.50
2017-11-08T23:35:29.680Z,17.50
2017-11-08T23:37:57.477Z,17.50
2017-11-08T23:40:25.420Z,17.40
2017-11-08T23:42:54.029Z,17.40
2017-11-08T23:45:21.846Z,17.40
2017-11-08T23:47:49.805Z,17.40
2017-11-08T23:50:17.617Z,17.40
2017-11-08T23:52:46.190Z,17.40
2017-11-08T23:55:15.043Z,17.40
2017-11-08T23:57:42.941Z,17.40
